Weather at Florida Power & Light-Juno Beach Heliport

Public forecast

Using degrees Fahrenheit for public forecast. Weather courtesy of forecast.io.

Closest aviation weather report (METAR) to Florida Power & Light-Juno Beach Heliport

Closest report is North Palm Beach County General Aviation Airport, 8.8 nm (16.3 km) W.

2024/05/30 10:10 (retrieved 26 minutes ago)

KF45 301010Z AUTO 00000KT 7SM BKN029 23/23 A3000 RMK AO2

Closest aviation forecast (TAF) to Florida Power & Light-Juno Beach Heliport

Closest forecast is Palm Beach International Airport, 10.8 nm (20.0 km) S.

2024/05/30 09:45 Ammendment (retrieved 51 minutes ago)

TAF AMD KPBI 300837Z 3009/3106 VRB05KT P6SM SKC FM301700 08010KT P6SM SCT030 SCT250 FM302100 08011KT P6SM VCTS SCT025CB BKN050 FM310100 VRB05KT P6SM SCT030 SCT060